Terminal Aerodrome Forecast
Issued by NWS

Current Version | Previous Version | Text Only | Print | Product List | Glossary On
Versions: 1 2 3 4 5 6 7 8 9 10 11 12 13 14
159
FTUS46 KMTR 120540
TAFSTS
TAF
KSTS 120540Z 1206/1306 18003KT P6SM SKC
     FM122100 32005KT P6SM BKN200
     FM130400 VRB03KT P6SM SCT200=

USA.gov is the U.S. government's official web portal to all federal, state and local government web resources and services.